Time;durP1;ratioP1;P1;durP2;ratioP2;P2;SDS_P1;SDS_P2;PMS_P1;PMS_P2;Temp;Humidity;BMP_temperature;BMP_pressure;BME280_temperature;BME280_humidity;BME280_pressure;Samples;Min_cycle;Max_cycle;Signal;HPM_P1;HPM_P2
2022/01/27 00:05:21;;;;;;;16.33;9.85;;;;;;;-1.19;73.82;96117.25;5106519;28;20481;-76
2022/01/27 00:08:24;;;;;;;17.88;9.98;;;;;;;-1.23;74.03;96118.38;5086974;28;20028;-76
2022/01/27 00:13:43;;;;;;;20.48;9.50;;;;;;;-1.32;74.03;96118.91;5060849;28;20048;-76
2022/01/27 00:16:17;;;;;;;19.33;9.43;;;;;;;-1.40;74.65;96114.03;5106963;28;20051;-77
2022/01/27 00:18:45;;;;;;;15.95;9.70;;;;;;;-1.23;73.92;96113.09;5108558;28;20027;-77
2022/01/27 00:21:11;;;;;;;17.83;9.57;;;;;;;-1.18;73.71;96113.69;5107514;28;20059;-77
2022/01/27 00:23:36;;;;;;;17.58;9.73;;;;;;;-1.16;73.72;96117.06;5089262;28;20035;-77
2022/01/27 00:26:02;;;;;;;16.17;9.38;;;;;;;-1.34;74.16;96118.97;5107508;28;20020;-77
2022/01/27 00:28:27;;;;;;;17.65;10.05;;;;;;;-1.28;73.95;96118.63;5108687;28;20059;-77
2022/01/27 00:30:53;;;;;;;19.63;9.98;;;;;;;-1.32;74.15;96116.28;5108320;28;20027;-77
2022/01/27 00:33:18;;;;;;;18.35;10.52;;;;;;;-1.25;73.85;96121.09;5108053;28;20072;-77
2022/01/27 00:35:44;;;;;;;18.90;10.18;;;;;;;-1.28;74.14;96128.31;5105699;28;20028;-76
2022/01/27 00:38:09;;;;;;;19.52;11.07;;;;;;;-1.34;74.00;96112.88;5107465;28;20020;-76
2022/01/27 00:40:35;;;;;;;20.98;10.90;;;;;;;-1.21;73.71;96124.38;5107385;28;20027;-74
2022/01/27 00:43:00;;;;;;;17.15;9.48;;;;;;;-1.16;73.10;96113.63;5107585;28;20036;-74
2022/01/27 00:45:29;;;;;;;18.95;10.00;;;;;;;-1.30;73.90;96122.28;5088634;28;20024;-76
2022/01/27 00:47:54;;;;;;;19.70;9.98;;;;;;;-1.22;73.90;96116.56;5087232;28;20074;-76
2022/01/27 00:50:19;;;;;;;15.07;8.68;;;;;;;-1.17;74.03;96123.28;5088098;28;20032;-76
2022/01/27 00:52:50;;;;;;;15.27;9.70;;;;;;;-1.14;73.38;96124.88;5087450;28;20020;-75
2022/01/27 00:55:16;;;;;;;14.55;8.75;;;;;;;-1.14;73.26;96123.09;5079045;28;20036;-75
2022/01/27 01:00:44;;;;;;;18.35;9.18;;;;;;;-0.96;72.63;96116.88;5085905;28;20107;-76
2022/01/27 01:03:11;;;;;;;16.38;8.05;;;;;;;-0.96;72.44;96112.47;5086775;28;20095;-76
2022/01/27 01:15:59;;;;;;;14.48;7.25;;;;;;;-0.93;72.07;96100.88;5106306;27;20035;-76
2022/01/27 01:29:28;;;;;;;11.95;6.40;;;;;;;-1.07;72.24;96110.44;5107606;28;20074;-77
2022/01/27 01:34:29;;;;;;;10.88;5.97;;;;;;;-1.04;71.82;96101.50;5095863;28;20028;-76
2022/01/27 01:37:04;;;;;;;10.35;5.93;;;;;;;-1.08;72.51;96100.00;5087442;28;20039;-75
2022/01/27 01:39:31;;;;;;;9.23;5.93;;;;;;;-0.90;71.75;96092.81;5086525;28;20460;-76
2022/01/27 01:41:57;;;;;;;12.07;5.90;;;;;;;-0.80;71.50;96093.13;5087580;28;20020;-77
2022/01/27 01:44:22;;;;;;;9.20;5.47;;;;;;;-0.83;71.73;96094.16;5053835;28;20096;-77
2022/01/27 01:46:48;;;;;;;9.93;6.38;;;;;;;-0.95;72.09;96092.25;5068368;28;20032;-76
2022/01/27 01:49:13;;;;;;;10.05;5.80;;;;;;;-0.98;72.26;96093.25;5084367;28;20641;-77
2022/01/27 01:51:39;;;;;;;8.98;5.05;;;;;;;-1.01;72.29;96085.53;5068063;28;20050;-77
2022/01/27 01:54:05;;;;;;;10.95;5.90;;;;;;;-0.99;72.36;96091.56;5085592;28;20024;-77
2022/01/27 01:56:31;;;;;;;8.38;5.15;;;;;;;-1.00;72.02;96079.34;5085375;28;20020;-77
2022/01/27 01:58:56;;;;;;;8.70;5.10;;;;;;;-0.95;72.09;96076.44;5085790;28;20027;-77
2022/01/27 02:01:22;;;;;;;9.63;5.07;;;;;;;-0.93;72.17;96078.03;5084859;28;20024;-77
2022/01/27 02:03:48;;;;;;;8.20;4.97;;;;;;;-1.01;72.51;96075.84;5084665;28;20027;-77
2022/01/27 02:06:20;;;;;;;9.55;5.55;;;;;;;-1.05;73.03;96068.22;5083823;28;20020;-77
2022/01/27 02:19:50;;;;;;;7.22;4.57;;;;;;;-1.02;72.37;96066.28;5084762;28;20031;-77
2022/01/27 02:22:16;;;;;;;9.30;5.32;;;;;;;-1.09;72.91;96064.91;5085365;28;20120;-77
2022/01/27 02:24:42;;;;;;;7.35;4.75;;;;;;;-0.96;72.50;96062.41;5083861;28;20081;-77
2022/01/27 02:27:07;;;;;;;6.57;4.45;;;;;;;-0.95;72.34;96066.75;5083580;28;20024;-77
2022/01/27 02:29:33;;;;;;;8.57;4.80;;;;;;;-0.94;72.29;96063.19;5089163;28;20020;-77
2022/01/27 02:31:59;;;;;;;7.63;4.82;;;;;;;-0.90;72.51;96063.84;5090051;28;20357;-76
2022/01/27 02:34:24;;;;;;;7.35;4.80;;;;;;;-0.86;72.09;96062.72;5095010;28;20051;-76
2022/01/27 02:36:50;;;;;;;7.70;4.13;;;;;;;-0.90;72.75;96059.41;5098571;28;20032;-76
2022/01/27 02:39:16;;;;;;;7.43;4.55;;;;;;;-0.84;72.62;96057.38;5101166;28;20077;-76
2022/01/27 02:41:42;;;;;;;6.60;4.18;;;;;;;-0.89;72.77;96060.28;5101191;28;20474;-78
2022/01/27 02:44:08;;;;;;;6.85;4.60;;;;;;;-0.83;72.44;96059.06;5100273;28;20032;-74
2022/01/27 02:46:42;;;;;;;7.53;4.60;;;;;;;-0.89;72.78;96055.84;5096519;28;20390;-77
2022/01/27 02:49:08;;;;;;;8.55;4.93;;;;;;;-0.88;72.87;96062.81;5087975;28;20044;-75
2022/01/27 02:51:36;;;;;;;7.78;4.78;;;;;;;-0.93;73.08;96062.25;5090183;28;20505;-78
2022/01/27 02:54:03;;;;;;;6.97;4.68;;;;;;;-0.92;73.24;96060.47;5089716;28;20108;-76
2022/01/27 02:56:28;;;;;;;7.07;5.15;;;;;;;-1.11;73.79;96058.88;5089689;28;20031;-76
2022/01/27 02:58:53;;;;;;;6.93;5.18;;;;;;;-1.03;73.86;96054.03;5089501;28;20245;-76
2022/01/27 03:01:20;;;;;;;8.93;5.10;;;;;;;-1.09;74.10;96053.53;5089098;28;20039;-75
2022/01/27 03:03:45;;;;;;;7.38;4.85;;;;;;;-1.02;73.67;96060.16;5088238;28;20498;-76
2022/01/27 03:06:11;;;;;;;8.38;5.47;;;;;;;-1.21;74.43;96063.84;5088454;28;20084;-77
2022/01/27 03:08:36;;;;;;;8.40;5.35;;;;;;;-0.94;73.57;96065.81;5089163;28;20020;-76
2022/01/27 03:11:03;;;;;;;11.48;5.40;;;;;;;-0.93;73.43;96064.00;5088830;28;20039;-76
2022/01/27 03:13:30;;;;;;;8.40;5.32;;;;;;;-0.94;73.72;96062.31;5072359;28;20036;-76
2022/01/27 03:15:55;;;;;;;9.20;6.05;;;;;;;-0.84;73.29;96065.28;5088595;28;20106;-76
2022/01/27 03:18:21;;;;;;;9.52;5.78;;;;;;;-0.82;72.81;96058.13;5090054;28;20020;-77
2022/01/27 03:20:46;;;;;;;9.93;5.88;;;;;;;-0.99;74.09;96059.97;5089549;28;20129;-76
2022/01/27 03:23:12;;;;;;;10.63;6.40;;;;;;;-0.94;73.80;96057.91;5089609;28;20031;-77
2022/01/27 03:25:38;;;;;;;10.75;6.18;;;;;;;-1.00;73.43;96063.56;5088794;28;20036;-80
2022/01/27 03:28:04;;;;;;;9.80;6.05;;;;;;;-1.02;74.29;96065.41;5087529;28;20648;-77
2022/01/27 03:30:29;;;;;;;8.05;5.40;;;;;;;-0.96;74.16;96065.06;5090164;28;20466;-77
2022/01/27 03:32:55;;;;;;;10.05;6.10;;;;;;;-0.94;73.38;96057.91;5070025;28;20035;-76
2022/01/27 03:35:20;;;;;;;9.55;6.00;;;;;;;-0.95;73.26;96058.84;5090289;28;20028;-76
2022/01/27 03:37:45;;;;;;;11.07;6.63;;;;;;;-0.85;72.93;96061.78;5087066;28;20024;-78
2022/01/27 03:40:11;;;;;;;10.02;6.88;;;;;;;-0.84;73.28;96063.50;5089359;28;20043;-77
2022/01/27 03:42:44;;;;;;;9.38;6.40;;;;;;;-1.05;73.74;96061.16;5087196;28;20032;-77
2022/01/27 03:45:10;;;;;;;9.60;5.75;;;;;;;-1.02;73.89;96066.28;5089372;28;20138;-76
2022/01/27 03:47:35;;;;;;;11.73;6.55;;;;;;;-0.94;73.68;96067.59;5089888;28;20532;-75
2022/01/27 03:50:01;;;;;;;10.20;6.80;;;;;;;-1.00;73.43;96071.44;5087339;28;20394;-78
2022/01/27 03:52:26;;;;;;;13.10;7.20;;;;;;;-1.23;74.27;96071.00;5089026;28;20482;-77
2022/01/27 03:54:52;;;;;;;9.32;6.50;;;;;;;-1.11;73.71;96072.03;5087146;28;20043;-77
2022/01/27 03:57:17;;;;;;;10.40;6.05;;;;;;;-0.94;73.57;96067.59;5088282;28;20036;-77
2022/01/27 03:59:42;;;;;;;10.07;6.15;;;;;;;-1.04;73.59;96067.28;5087638;28;20039;-76
2022/01/27 04:02:08;;;;;;;10.57;6.30;;;;;;;-1.01;73.71;96070.59;5088117;28;20074;-78
2022/01/27 04:04:33;;;;;;;9.30;6.13;;;;;;;-1.09;73.97;96069.31;5087751;28;20092;-77
2022/01/27 04:06:59;;;;;;;11.40;6.72;;;;;;;-1.08;73.63;96076.31;5087825;28;20028;-79
2022/01/27 04:09:26;;;;;;;9.48;6.40;;;;;;;-0.97;73.50;96067.78;5086633;28;20426;-77
2022/01/27 04:11:52;;;;;;;9.88;5.78;;;;;;;-0.92;73.03;96071.81;5087055;28;20024;-76
2022/01/27 04:14:17;;;;;;;10.20;6.50;;;;;;;-0.87;72.63;96075.03;5088546;28;20521;-75
2022/01/27 04:16:43;;;;;;;10.60;6.65;;;;;;;-0.96;73.44;96075.59;5085844;28;20332;-76
2022/01/27 04:19:08;;;;;;;11.32;7.10;;;;;;;-1.05;73.58;96076.13;5093152;28;20024;-76
2022/01/27 04:21:33;;;;;;;11.23;7.53;;;;;;;-1.02;73.65;96073.31;5094126;28;20028;-79
2022/01/27 04:23:59;;;;;;;9.98;6.82;;;;;;;-1.14;74.26;96078.34;5098550;28;20081;-78
2022/01/27 04:26:33;;;;;;;11.07;6.72;;;;;;;-1.04;73.81;96078.66;5098314;28;20076;-79
2022/01/27 04:28:58;;;;;;;9.07;6.18;;;;;;;-1.03;73.50;96080.34;5088938;28;20076;-78
2022/01/27 04:31:26;;;;;;;9.23;6.60;;;;;;;-1.01;73.42;96077.63;5088269;28;20020;-77
2022/01/27 04:33:52;;;;;;;7.65;5.80;;;;;;;-0.97;73.23;96080.94;5085595;28;20460;-77
2022/01/27 04:36:29;;;;;;;11.77;7.25;;;;;;;-0.99;73.16;96081.03;5088051;28;20081;-78
2022/01/27 04:39:33;;;;;;;9.05;6.35;;;;;;;-1.08;74.15;96079.78;5086987;28;20028;-78
2022/01/27 04:49:59;;;;;;;11.43;7.22;;;;;;;-1.19;74.48;96093.56;5065857;28;20387;-77
2022/01/27 04:52:27;;;;;;;9.57;6.13;;;;;;;-1.26;74.52;96095.69;5065290;28;20029;-78
2022/01/27 04:55:05;;;;;;;11.70;6.80;;;;;;;-1.08;73.96;96102.63;5047410;28;20024;-78
2022/01/27 04:57:31;;;;;;;10.93;6.63;;;;;;;-1.12;74.10;96092.28;5064260;28;20056;-79
2022/01/27 04:59:57;;;;;;;10.98;6.70;;;;;;;-1.16;74.36;96093.38;5062463;28;20373;-80
2022/01/27 05:05:06;;;;;;;11.68;6.85;;;;;;;-1.20;74.58;96094.50;5064227;28;20590;-81
2022/01/27 05:07:32;;;;;;;10.75;7.03;;;;;;;-1.26;75.13;96108.03;5064946;28;20100;-81
2022/01/27 05:10:02;;;;;;;9.15;6.97;;;;;;;-1.24;74.90;96108.75;5065515;28;20024;-79
2022/01/27 05:12:36;;;;;;;11.63;6.97;;;;;;;-1.23;74.95;96104.34;5062692;28;20457;-79
2022/01/27 05:15:02;;;;;;;10.50;7.80;;;;;;;-1.24;75.23;96119.28;5065516;28;20471;-80
2022/01/27 05:17:28;;;;;;;10.80;7.82;;;;;;;-1.19;74.73;96116.44;5062419;28;20021;-79
2022/01/27 05:19:53;;;;;;;10.02;7.38;;;;;;;-1.27;75.24;96120.31;5065632;28;20086;-78
2022/01/27 05:22:19;;;;;;;10.57;7.68;;;;;;;-1.23;75.11;96118.38;5045983;28;20479;-79
2022/01/27 05:24:44;;;;;;;13.73;7.43;;;;;;;-1.28;75.31;96123.03;5065348;28;20024;-79
2022/01/27 05:27:09;;;;;;;11.50;6.95;;;;;;;-1.23;75.20;96131.53;5064895;28;20024;-79
2022/01/27 05:29:35;;;;;;;9.88;7.15;;;;;;;-1.31;75.51;96133.75;5062960;28;20029;-78
2022/01/27 05:32:00;;;;;;;11.27;7.47;;;;;;;-1.20;75.24;96123.47;5065294;28;20021;-78
2022/01/27 05:34:26;;;;;;;15.70;8.85;;;;;;;-1.33;75.73;96130.34;5063207;28;20028;-78
2022/01/27 05:36:57;;;;;;;16.98;9.13;;;;;;;-1.14;75.23;96127.50;5059124;28;20021;-78
2022/01/27 05:39:23;;;;;;;12.75;8.65;;;;;;;-1.19;75.37;96121.69;5026506;28;20040;-78
2022/01/27 05:41:48;;;;;;;15.18;8.82;;;;;;;-1.20;75.12;96130.50;5065184;28;20036;-80
2022/01/27 05:44:14;;;;;;;13.63;8.95;;;;;;;-1.16;75.39;96127.59;5063118;28;20423;-80
2022/01/27 05:46:39;;;;;;;11.75;7.63;;;;;;;-1.13;75.12;96130.06;5064436;28;20487;-81
2022/01/27 05:49:05;;;;;;;11.43;7.47;;;;;;;-1.05;74.78;96120.88;5063373;28;20435;-78
2022/01/27 05:51:30;;;;;;;15.05;7.78;;;;;;;-1.08;75.05;96128.97;5062224;28;20475;-77
2022/01/27 05:53:55;;;;;;;11.07;7.82;;;;;;;-1.06;74.73;96129.72;5064791;28;20017;-77
2022/01/27 05:56:21;;;;;;;13.88;8.35;;;;;;;-1.12;74.77;96134.41;5063039;28;20036;-79
2022/01/27 05:58:46;;;;;;;14.00;8.05;;;;;;;-1.07;74.85;96134.16;5062791;28;20494;-77
2022/01/27 06:01:12;;;;;;;15.70;9.50;;;;;;;-1.14;75.52;96131.00;5035344;28;20033;-79
2022/01/27 06:03:38;;;;;;;17.58;9.18;;;;;;;-1.30;76.00;96135.44;5032258;28;20410;-79
2022/01/27 06:06:03;;;;;;;15.07;8.50;;;;;;;-1.09;75.34;96143.06;5049365;28;20025;-79
2022/01/27 06:08:30;;;;;;;14.95;9.73;;;;;;;-1.02;75.36;96152.31;5049103;28;20056;-79
2022/01/27 06:10:59;;;;;;;15.05;9.23;;;;;;;-1.00;75.15;96140.75;5049891;28;20051;-79
2022/01/27 06:13:24;;;;;;;13.18;8.50;;;;;;;-0.97;74.97;96145.00;5044719;28;20041;-77
2022/01/27 06:15:50;;;;;;;15.43;8.43;;;;;;;-0.89;74.90;96145.38;5051000;28;20479;-78
2022/01/27 06:18:15;;;;;;;15.25;8.80;;;;;;;-0.77;73.78;96151.75;5048871;28;20025;-79
2022/01/27 06:20:43;;;;;;;12.45;8.18;;;;;;;-0.75;74.14;96143.75;5037592;28;20024;-78
2022/01/27 06:23:09;;;;;;;13.57;8.55;;;;;;;-0.75;73.66;96141.13;5028765;28;20518;-79
2022/01/27 06:25:35;;;;;;;14.88;9.18;;;;;;;-0.87;74.90;96153.19;5023067;28;20037;-78
2022/01/27 06:28:00;;;;;;;13.65;8.07;;;;;;;-0.88;74.78;96149.75;5013825;28;20147;-78
2022/01/27 06:30:26;;;;;;;12.60;8.13;;;;;;;-0.91;74.73;96157.81;5049049;28;20059;-78
2022/01/27 06:32:51;;;;;;;13.50;7.95;;;;;;;-0.92;74.77;96152.63;5042333;28;20036;-78
2022/01/27 06:35:17;;;;;;;14.00;8.35;;;;;;;-0.95;75.08;96161.53;5046106;28;20017;-79
2022/01/27 06:37:45;;;;;;;12.85;8.50;;;;;;;-0.93;74.62;96164.09;5043330;28;20044;-80
2022/01/27 06:40:11;;;;;;;14.00;8.55;;;;;;;-1.10;75.45;96158.03;5023204;28;20063;-78
2022/01/27 06:42:36;;;;;;;14.32;9.23;;;;;;;-0.96;75.03;96156.38;5017010;28;20035;-78
2022/01/27 06:45:03;;;;;;;14.05;9.23;;;;;;;-1.04;75.28;96162.94;5034261;28;20521;-79
2022/01/27 06:47:29;;;;;;;13.43;8.90;;;;;;;-0.90;74.73;96158.66;5040255;28;20642;-78
2022/01/27 06:49:54;;;;;;;15.38;9.32;;;;;;;-0.81;74.67;96162.56;5049215;28;20049;-78
2022/01/27 06:52:21;;;;;;;14.95;9.75;;;;;;;-0.91;74.65;96168.34;5047508;28;20044;-73
2022/01/27 06:54:49;;;;;;;14.60;9.68;;;;;;;-0.73;74.25;96162.97;5030278;28;20056;-77
2022/01/27 06:57:15;;;;;;;13.68;8.57;;;;;;;-0.72;74.15;96162.00;5046468;28;20041;-75
2022/01/27 06:59:40;;;;;;;16.42;9.25;;;;;;;-0.75;73.88;96162.19;5049209;28;20099;-79
2022/01/27 07:02:06;;;;;;;15.68;9.93;;;;;;;-0.79;74.85;96160.69;5047526;28;20021;-79
2022/01/27 07:04:31;;;;;;;15.85;9.85;;;;;;;-0.73;74.45;96164.75;5048415;28;20025;-79
2022/01/27 07:06:57;;;;;;;13.60;8.85;;;;;;;-0.69;74.62;96161.84;5049257;28;20434;-80
2022/01/27 07:09:22;;;;;;;15.20;9.32;;;;;;;-0.54;73.36;96160.09;5048294;28;20043;-80
2022/01/27 07:11:48;;;;;;;16.17;8.98;;;;;;;-0.48;73.15;96166.78;5039802;28;20467;-76
2022/01/27 07:14:13;;;;;;;17.13;10.30;;;;;;;-0.59;73.81;96167.41;5033170;28;20047;-76
2022/01/27 07:16:39;;;;;;;16.02;9.60;;;;;;;-0.54;73.47;96164.50;5036992;28;20048;-77
2022/01/27 07:19:04;;;;;;;13.57;8.82;;;;;;;-0.41;73.44;96164.63;5029599;28;20463;-75
2022/01/27 07:21:30;;;;;;;13.55;8.57;;;;;;;-0.20;72.93;96172.22;5046506;28;20449;-76
2022/01/27 07:23:55;;;;;;;13.95;8.52;;;;;;;-0.13;72.26;96173.56;5036447;28;20036;-77
2022/01/27 07:26:25;;;;;;;14.70;8.75;;;;;;;-0.05;72.38;96173.09;5036360;28;20025;-77
2022/01/27 07:28:54;;;;;;;13.73;8.88;;;;;;;0.04;71.83;96180.44;5025733;28;20549;-76
2022/01/27 07:31:19;;;;;;;13.43;8.30;;;;;;;0.06;70.89;96178.56;5026528;28;20033;-76
2022/01/27 07:33:47;;;;;;;13.65;8.73;;;;;;;0.19;70.97;96185.72;5010110;28;20029;-77
2022/01/27 07:36:13;;;;;;;13.50;8.32;;;;;;;0.24;70.64;96181.00;5024659;28;20112;-75
2022/01/27 07:38:38;;;;;;;13.13;9.20;;;;;;;0.26;70.96;96178.28;5026857;28;20029;-74
2022/01/27 07:41:04;;;;;;;16.00;9.60;;;;;;;0.29;70.77;96183.38;5025841;28;20043;-76
2022/01/27 07:43:29;;;;;;;13.77;9.07;;;;;;;0.38;69.91;96176.66;5027309;28;20025;-75
2022/01/27 07:45:54;;;;;;;18.90;10.45;;;;;;;0.39;69.88;96181.84;5026725;28;20032;-75
2022/01/27 07:48:20;;;;;;;17.02;10.05;;;;;;;0.31;71.03;96187.59;5027374;28;20052;-75
2022/01/27 07:50:45;;;;;;;16.27;9.57;;;;;;;0.31;70.75;96182.31;5028596;28;20044;-77
2022/01/27 07:53:11;;;;;;;15.68;10.48;;;;;;;0.41;70.75;96181.75;5025362;28;20052;-75
2022/01/27 07:55:36;;;;;;;14.48;9.57;;;;;;;0.53;70.10;96181.00;5028437;28;20030;-76
2022/01/27 07:58:01;;;;;;;17.35;10.68;;;;;;;0.55;70.02;96187.00;5025599;28;20025;-76
2022/01/27 08:00:27;;;;;;;18.73;10.32;;;;;;;0.61;69.86;96180.50;5027147;28;20029;-77
2022/01/27 08:02:52;;;;;;;17.70;10.38;;;;;;;0.60;69.66;96187.56;5027523;28;20025;-75
2022/01/27 08:05:18;;;;;;;17.08;10.65;;;;;;;0.67;70.16;96182.75;5026852;28;20029;-76
2022/01/27 08:07:43;;;;;;;15.55;10.48;;;;;;;0.76;69.49;96183.97;5026835;28;20034;-77
2022/01/27 08:10:09;;;;;;;18.80;11.25;;;;;;;0.91;68.43;96186.56;5027004;28;20451;-76
2022/01/27 08:12:43;;;;;;;16.70;10.48;;;;;;;0.89;68.76;96183.19;5027279;28;20022;-75
2022/01/27 08:15:11;;;;;;;17.15;10.65;;;;;;;0.81;69.44;96176.59;5026931;28;20021;-75
2022/01/27 08:17:37;;;;;;;13.68;8.90;;;;;;;0.84;69.37;96184.31;5027108;28;20246;-76
2022/01/27 08:20:03;;;;;;;14.55;8.88;;;;;;;0.89;68.76;96191.94;5009564;28;20041;-75
2022/01/27 08:22:28;;;;;;;13.88;9.15;;;;;;;0.91;69.10;96192.72;5026383;28;20029;-75
2022/01/27 08:24:54;;;;;;;19.58;11.13;;;;;;;0.60;69.59;96198.13;5026507;28;20415;-75
2022/01/27 08:27:24;;;;;;;18.10;10.60;;;;;;;0.84;69.35;96191.38;5026953;28;20025;-77
2022/01/27 08:29:55;;;;;;;19.13;11.88;;;;;;;0.97;68.85;96196.75;5028193;28;20045;-75
2022/01/27 08:32:47;;;;;;;18.13;11.00;;;;;;;0.88;68.84;96200.84;5025227;28;20515;-75
2022/01/27 08:35:17;;;;;;;15.63;9.88;;;;;;;0.89;68.65;96201.69;5028274;28;20057;-74
2022/01/27 08:37:42;;;;;;;14.63;9.60;;;;;;;0.98;68.86;96201.91;5026134;28;20298;-75
2022/01/27 08:40:09;;;;;;;15.85;10.40;;;;;;;1.02;68.22;96207.88;5027325;28;20018;-75
2022/01/27 08:42:34;;;;;;;16.63;10.05;;;;;;;1.10;67.71;96199.44;5026470;28;20021;-76
2022/01/27 08:45:00;;;;;;;16.02;10.00;;;;;;;1.16;68.32;96208.78;5008826;28;20041;-75
2022/01/27 08:47:26;;;;;;;16.25;10.10;;;;;;;1.09;68.35;96206.53;5027580;28;20048;-75
2022/01/27 08:49:52;;;;;;;14.73;9.60;;;;;;;1.16;67.73;96203.50;5032225;28;20065;-74
2022/01/27 08:52:17;;;;;;;15.30;9.60;;;;;;;1.24;67.26;96201.22;5031093;28;20031;-75
2022/01/27 08:54:43;;;;;;;13.95;9.20;;;;;;;1.19;68.27;96200.66;5026858;28;20033;-77
2022/01/27 08:57:11;;;;;;;16.67;9.95;;;;;;;1.01;68.41;96203.53;5026452;28;20022;-75
2022/01/27 08:59:36;;;;;;;17.00;10.32;;;;;;;1.15;68.50;96196.50;5027444;28;20038;-76
2022/01/27 09:02:02;;;;;;;14.60;9.48;;;;;;;1.19;68.45;96211.22;5025490;28;20377;-75
2022/01/27 09:04:27;;;;;;;14.63;9.65;;;;;;;1.27;67.33;96200.16;5027697;28;20110;-76
2022/01/27 09:06:52;;;;;;;14.50;9.43;;;;;;;1.20;67.87;96200.56;5026337;28;20022;-75
2022/01/27 09:09:19;;;;;;;16.05;10.02;;;;;;;1.29;67.19;96207.00;5026487;28;20436;-75
2022/01/27 09:11:46;;;;;;;20.48;10.82;;;;;;;1.34;67.09;96196.13;5024836;28;20095;-75
2022/01/27 09:14:12;;;;;;;16.83;10.57;;;;;;;1.47;66.99;96206.75;5026673;28;20048;-75
2022/01/27 09:16:38;;;;;;;19.08;10.50;;;;;;;1.44;66.83;96205.19;5025811;28;20037;-75
2022/01/27 09:19:04;;;;;;;14.95;10.02;;;;;;;1.57;66.40;96213.16;5025897;28;20025;-75
2022/01/27 09:21:40;;;;;;;16.83;10.07;;;;;;;1.65;65.77;96214.41;5027498;28;20040;-77
2022/01/27 09:24:06;;;;;;;16.23;10.27;;;;;;;1.68;65.14;96208.94;5025340;28;20041;-76
2022/01/27 09:26:52;;;;;;;16.45;9.85;;;;;;;1.63;66.00;96211.06;5026499;28;20026;-76
2022/01/27 09:29:19;;;;;;;15.40;10.00;;;;;;;1.65;65.48;96209.13;5026442;28;20056;-78
2022/01/27 09:31:46;;;;;;;15.82;9.88;;;;;;;1.74;65.71;96197.97;5026184;28;20079;-77
2022/01/27 09:34:11;;;;;;;19.67;11.60;;;;;;;1.76;65.72;96208.44;5026368;28;20052;-76
2022/01/27 09:36:36;;;;;;;19.25;10.65;;;;;;;1.72;65.34;96194.56;5028527;28;20014;-76
2022/01/27 09:39:02;;;;;;;15.40;9.98;;;;;;;1.60;65.72;96197.06;5031532;28;20021;-76
2022/01/27 09:41:28;;;;;;;17.60;9.77;;;;;;;1.66;65.25;96192.34;5012208;28;20021;-75
2022/01/27 09:43:54;;;;;;;19.60;11.10;;;;;;;1.73;65.32;96185.66;5013833;28;20068;-76
2022/01/27 09:46:23;;;;;;;16.20;10.55;;;;;;;1.84;64.96;96182.28;5030066;28;20104;-76
2022/01/27 09:48:50;;;;;;;17.48;11.38;;;;;;;1.90;64.10;96183.69;5030483;28;20550;-75
2022/01/27 09:51:37;;;;;;;20.20;12.30;;;;;;;1.85;64.84;96184.00;5029379;28;20488;-75
2022/01/27 09:54:03;;;;;;;18.10;11.30;;;;;;;1.78;64.63;96180.91;5028682;28;20404;-76
2022/01/27 09:56:28;;;;;;;19.25;11.27;;;;;;;1.62;64.91;96178.47;5029672;28;20053;-77
2022/01/27 09:58:53;;;;;;;20.65;11.15;;;;;;;1.69;63.70;96173.63;5028389;28;20468;-76
2022/01/27 10:01:19;;;;;;;18.70;11.35;;;;;;;1.60;64.30;96178.56;5031028;28;20025;-76
2022/01/27 10:04:02;;;;;;;20.75;11.52;;;;;;;1.65;64.28;96178.25;5029302;28;20022;-77
2022/01/27 10:06:31;;;;;;;;;;;;;;;1.65;64.30;96178.25;5029904;28;20548;-75
2022/01/27 10:09:31;;;;;;;18.23;11.30;;;;;;;1.68;63.79;96183.34;5029275;28;19913;-75
2022/01/27 10:11:56;;;;;;;17.50;10.25;;;;;;;1.67;63.46;96173.72;5027986;28;20049;-76
2022/01/27 10:14:25;;;;;;;17.92;10.65;;;;;;;1.67;63.68;96176.38;5029603;28;20033;-76
2022/01/27 10:16:54;;;;;;;16.58;10.32;;;;;;;1.60;63.70;96170.63;5028081;28;20029;-75
2022/01/27 10:19:19;;;;;;;19.90;10.55;;;;;;;1.67;63.67;96164.94;5031461;28;20026;-77
2022/01/27 10:21:46;;;;;;;16.63;10.27;;;;;;;1.67;63.67;96175.50;5031132;28;20040;-76
2022/01/27 10:24:26;;;;;;;14.57;9.77;;;;;;;1.80;62.19;96178.16;5030550;28;20052;-76
2022/01/27 10:27:18;;;;;;;16.45;9.95;;;;;;;1.83;62.07;96172.66;5014790;28;20029;-76
2022/01/27 10:30:05;;;;;;;12.98;9.10;;;;;;;1.90;62.05;96170.47;5028692;28;20017;-75
2022/01/27 10:32:43;;;;;;;13.38;8.10;;;;;;;1.94;61.63;96174.56;5028894;28;20340;-76
2022/01/27 10:35:09;;;;;;;13.82;8.48;;;;;;;2.04;60.95;96161.56;5029040;28;20025;-75
2022/01/27 10:38:07;;;;;;;14.30;8.88;;;;;;;2.09;60.60;96162.97;5027392;28;20476;-76
2022/01/27 10:40:39;;;;;;;14.32;8.35;;;;;;;2.34;59.94;96155.94;5028963;28;20044;-75
2022/01/27 10:43:15;;;;;;;13.73;8.57;;;;;;;2.29;59.04;96162.53;5027685;28;20424;-75
2022/01/27 10:48:51;;;;;;;14.95;8.90;;;;;;;2.45;58.62;96138.47;5029699;28;20076;-75
2022/01/27 10:51:23;;;;;;;13.95;8.43;;;;;;;2.55;59.20;96150.06;5011994;28;20497;-75
2022/01/27 10:53:58;;;;;;;15.10;8.30;;;;;;;2.50;58.39;96143.44;5027311;28;20415;-77
2022/01/27 10:56:28;;;;;;;13.07;8.10;;;;;;;2.44;58.52;96145.53;5026862;28;20454;-79
2022/01/27 10:58:55;;;;;;;12.48;7.88;;;;;;;2.39;58.16;96141.50;5009816;28;20484;-76
2022/01/27 11:01:25;;;;;;;10.70;7.00;;;;;;;2.48;57.53;96138.25;5027422;28;20037;-74
2022/01/27 11:03:52;;;;;;;10.35;6.70;;;;;;;2.51;57.56;96131.88;5026641;28;20032;-76
2022/01/27 11:06:23;;;;;;;11.43;7.25;;;;;;;2.43;57.22;96140.38;5011065;28;20063;-75
2022/01/27 11:08:48;;;;;;;10.50;6.93;;;;;;;2.55;57.53;96134.19;5025519;28;20064;-75
2022/01/27 11:11:14;;;;;;;11.15;6.82;;;;;;;2.58;57.16;96136.63;5010449;28;20457;-75
2022/01/27 11:13:43;;;;;;;9.50;5.90;;;;;;;2.68;56.89;96120.06;5027650;28;20503;-75
2022/01/27 11:16:12;;;;;;;10.20;6.60;;;;;;;2.70;57.24;96124.31;5026327;28;20091;-76
2022/01/27 11:18:38;;;;;;;10.07;6.82;;;;;;;2.77;56.72;96121.19;5026907;28;20101;-77
2022/01/27 11:21:10;;;;;;;10.30;6.68;;;;;;;2.86;56.46;96117.03;5025079;28;20029;-77
2022/01/27 11:26:09;;;;;;;9.80;6.60;;;;;;;3.09;56.60;96116.19;5009231;28;20037;-75
2022/01/27 11:28:35;;;;;;;14.90;8.40;;;;;;;3.10;56.98;96111.72;5026746;28;20033;-76
2022/01/27 11:31:26;;;;;;;10.95;6.80;;;;;;;3.18;56.03;96108.50;5009725;28;20037;-76
2022/01/27 11:34:03;;;;;;;9.48;6.47;;;;;;;3.07;55.88;96101.34;5025407;28;20076;-76
2022/01/27 11:36:29;;;;;;;10.75;7.10;;;;;;;3.09;55.79;96105.56;5026984;28;20072;-75
2022/01/27 11:38:55;;;;;;;12.70;7.00;;;;;;;3.06;56.08;96099.69;5008545;28;20124;-75
2022/01/27 11:41:43;;;;;;;9.48;6.80;;;;;;;2.98;56.02;96105.53;5026476;28;20470;-75
2022/01/27 11:44:22;;;;;;;9.55;6.40;;;;;;;2.92;56.04;96098.03;5027373;28;20033;-75
2022/01/27 11:47:10;;;;;;;10.85;7.70;;;;;;;3.03;56.06;96100.72;5026810;28;20503;-76
2022/01/27 11:49:54;;;;;;;10.40;6.43;;;;;;;2.94;55.17;96096.13;5029050;28;20045;-76
2022/01/27 11:52:20;;;;;;;8.82;6.38;;;;;;;3.07;54.90;96110.16;5027491;28;20559;-76
2022/01/27 11:54:46;;;;;;;9.30;6.40;;;;;;;3.05;54.74;96093.50;5029078;28;20034;-76
2022/01/27 11:57:40;;;;;;;11.75;6.72;;;;;;;3.16;54.86;96089.25;5010371;28;20502;-75
2022/01/27 12:00:14;;;;;;;8.95;6.35;;;;;;;3.38;54.81;96092.91;5024868;28;20500;-76
2022/01/27 12:02:58;;;;;;;9.77;5.85;;;;;;;3.57;54.40;96097.66;5011616;28;20029;-75
2022/01/27 12:05:24;;;;;;;9.10;6.00;;;;;;;3.66;54.26;96104.09;5026278;28;20102;-76
2022/01/27 12:08:08;;;;;;;9.05;6.22;;;;;;;3.63;53.71;96106.97;5009588;28;20434;-77
2022/01/27 12:10:52;;;;;;;9.57;6.00;;;;;;;3.51;53.63;96104.28;5027354;28;20079;-76
2022/01/27 12:13:27;;;;;;;9.00;5.97;;;;;;;3.61;53.47;96095.63;5023993;28;20037;-75
2022/01/27 12:16:11;;;;;;;10.32;6.22;;;;;;;3.69;52.45;96102.03;5027372;28;20053;-77
2022/01/27 12:18:37;;;;;;;8.20;5.35;;;;;;;3.62;52.27;96084.06;5026523;28;20025;-76
2022/01/27 12:21:39;;;;;;;8.13;5.75;;;;;;;3.70;52.79;96084.31;5024947;28;20083;-76
2022/01/27 12:24:28;;;;;;;9.68;6.07;;;;;;;3.66;52.94;96083.69;5027182;28;20045;-76
2022/01/27 12:27:06;;;;;;;10.05;6.13;;;;;;;3.55;53.82;96079.22;5025797;28;20156;-77
2022/01/27 12:29:34;;;;;;;10.00;6.32;;;;;;;3.61;53.30;96077.06;5025098;28;20060;-76
2022/01/27 12:32:17;;;;;;;14.43;7.63;;;;;;;3.51;53.84;96075.13;5026977;28;20060;-79
2022/01/27 12:34:59;;;;;;;10.65;6.75;;;;;;;3.53;53.30;96075.81;5009139;28;20488;-78
2022/01/27 12:37:34;;;;;;;11.25;6.25;;;;;;;3.44;53.77;96071.22;5025987;28;20037;-77